Time;durP1;ratioP1;P1;durP2;ratioP2;P2;SDS_P1;SDS_P2;PMS_P1;PMS_P2;Temp;Humidity;BMP_temperature;BMP_pressure;BME280_temperature;BME280_humidity;BME280_pressure;Samples;Min_cycle;Max_cycle;Signal;HPM_P1;HPM_P2
2023/10/21 00:01:55;;;;;;;;;;;;;;;;;;5128257;28;19930;-44
2023/10/21 00:04:21;;;;;;;;;;;;;;;;;;5128429;28;19949;-44
2023/10/21 00:06:46;;;;;;;;;;;;;;;;;;5144294;27;19934;-44
2023/10/21 00:09:12;;;;;;;;;;;;;;;;;;5147553;27;20314;-45
2023/10/21 00:11:37;;;;;;;;;;;;;;;;;;5149115;27;20025;-44
2023/10/21 00:14:03;;;;;;;;;;;;;;;;;;5148479;27;19946;-44
2023/10/21 00:16:28;;;;;;;;;;;;;;;;;;5148778;27;20022;-45
2023/10/21 00:18:53;;;;;;;;;;;;;;;;;;5148831;27;19923;-46
2023/10/21 00:21:19;;;;;;;;;;;;;;;;;;5148816;27;19923;-45
2023/10/21 00:23:44;;;;;;;;;;;;;;;;;;5148491;27;19969;-43
2023/10/21 00:26:10;;;;;;;;;;;;;;;;;;5147242;27;20018;-44
2023/10/21 00:28:35;;;;;;;;;;;;;;;;;;5147958;27;19966;-45
2023/10/21 00:31:01;;;;;;;;;;;;;;;;;;5148956;27;19994;-44
2023/10/21 00:33:26;;;;;;;;;;;;;;;;;;5149230;27;20349;-43
2023/10/21 00:35:52;;;;;;;;;;;;;;;;;;5148107;27;19927;-47
2023/10/21 00:38:17;;;;;;;;;;;;;;;;;;5144746;27;19977;-48
2023/10/21 00:40:43;;;;;;;;;;;;;;;;;;5149026;27;19929;-46
2023/10/21 00:43:08;;;;;;;;;;;;;;;;;;5149428;27;20013;-43
2023/10/21 00:45:34;;;;;;;;;;;;;;;;;;5148546;27;20138;-44
2023/10/21 00:47:59;;;;;;;;;;;;;;;;;;5147809;27;20126;-44
2023/10/21 00:50:25;;;;;;;;;;;;;;;;;;5148317;27;19927;-45
2023/10/21 00:52:50;;;;;;;;;;;;;;;;;;5148776;27;19971;-44
2023/10/21 00:55:15;;;;;;;;;;;;;;;;;;5147848;27;19972;-46
2023/10/21 00:57:41;;;;;;;;;;;;;;;;;;5145793;27;19958;-45
2023/10/21 01:00:16;;;;;;;;;;;;;;;;;;5128065;28;19928;-43
2023/10/21 01:02:42;;;;;;;;;;;;;;;;;;5127662;28;19930;-45
2023/10/21 01:05:08;;;;;;;;;;;;;;;;;;5128284;27;20231;-43
2023/10/21 01:07:34;;;;;;;;;;;;;;;;;;5139339;27;20002;-44
2023/10/21 01:10:00;;;;;;;;;;;;;;;;;;5148509;27;19965;-45
2023/10/21 01:12:25;;;;;;;;;;;;;;;;;;5148880;27;19931;-44
2023/10/21 01:14:52;;;;;;;;;;;;;;;;;;5148605;27;20017;-44
2023/10/21 01:17:18;;;;;;;;;;;;;;;;;;5148655;27;19927;-44
2023/10/21 01:19:43;;;;;;;;;;;;;;;;;;5149085;27;19958;-44
2023/10/21 01:22:09;;;;;;;;;;;;;;;;;;5151657;27;20017;-46
2023/10/21 01:24:34;;;;;;;;;;;;;;;;;;5152224;27;19929;-45
2023/10/21 01:26:59;;;;;;;;;;;;;;;;;;5151155;27;20009;-46
2023/10/21 01:29:25;;;;;;;;;;;;;;;;;;5135474;27;20455;-45
2023/10/21 01:31:50;;;;;;;;;;;;;;;;;;5131459;28;19924;-46
2023/10/21 01:34:16;;;;;;;;;;;;;;;;;;5131453;28;20015;-44
2023/10/21 01:36:41;;;;;;;;;;;;;;;;;;5142671;27;19923;-44
2023/10/21 01:39:10;;;;;;;;;;;;;;;;;;5134057;27;19950;-44
2023/10/21 01:41:35;;;;;;;;;;;;;;;;;;5130934;28;20394;-44
2023/10/21 01:44:01;;;;;;;;;;;;;;;;;;5130736;28;19959;-44
2023/10/21 01:46:26;;;;;;;;;;;;;;;;;;5139976;27;19923;-44
2023/10/21 01:48:52;;;;;;;;;;;;;;;;;;5150316;27;20370;-43
2023/10/21 01:51:17;;;;;;;;;;;;;;;;;;5151140;27;19933;-44
2023/10/21 01:53:43;;;;;;;;;;;;;;;;;;5150819;27;20380;-45
2023/10/21 01:56:09;;;;;;;;;;;;;;;;;;5150159;27;19931;-47
2023/10/21 01:58:36;;;;;;;;;;;;;;;;;;5142595;27;19959;-47
2023/10/21 02:01:01;;;;;;;;;;;;;;;;;;5130824;28;19959;-46
2023/10/21 02:03:26;;;;;;;;;;;;;;;;;;5131358;28;20033;-44
2023/10/21 02:05:52;;;;;;;;;;;;;;;;;;5134103;27;19934;-43
2023/10/21 02:08:18;;;;;;;;;;;;;;;;;;5148457;27;19934;-44
2023/10/21 02:10:43;;;;;;;;;;;;;;;;;;5150530;27;20379;-43
2023/10/21 02:13:08;;;;;;;;;;;;;;;;;;5151279;27;20018;-44
2023/10/21 02:15:34;;;;;;;;;;;;;;;;;;5150560;27;19958;-43
2023/10/21 02:17:59;;;;;;;;;;;;;;;;;;5150467;27;20025;-43
2023/10/21 02:20:25;;;;;;;;;;;;;;;;;;5151583;27;19970;-45
2023/10/21 02:22:50;;;;;;;;;;;;;;;;;;5151207;27;19929;-46
2023/10/21 02:25:16;;;;;;;;;;;;;;;;;;5148814;27;19929;-43
2023/10/21 02:27:42;;;;;;;;;;;;;;;;;;5149487;27;19966;-46
2023/10/21 02:30:07;;;;;;;;;;;;;;;;;;5149284;27;19927;-44
2023/10/21 02:32:33;;;;;;;;;;;;;;;;;;5149269;27;20423;-45
2023/10/21 02:34:58;;;;;;;;;;;;;;;;;;5150150;27;19930;-46
2023/10/21 02:37:24;;;;;;;;;;;;;;;;;;5143598;27;19931;-44
2023/10/21 02:39:50;;;;;;;;;;;;;;;;;;5149695;27;20426;-46
2023/10/21 02:42:15;;;;;;;;;;;;;;;;;;5150850;27;19968;-43
2023/10/21 02:44:41;;;;;;;;;;;;;;;;;;5150222;27;19923;-43
2023/10/21 02:47:07;;;;;;;;;;;;;;;;;;5150720;27;20379;-44
2023/10/21 02:49:32;;;;;;;;;;;;;;;;;;5149764;27;19970;-44
2023/10/21 02:51:58;;;;;;;;;;;;;;;;;;5150111;27;19938;-44
2023/10/21 02:54:23;;;;;;;;;;;;;;;;;;5150744;27;19930;-44
2023/10/21 02:56:49;;;;;;;;;;;;;;;;;;5149796;27;19923;-45
2023/10/21 02:59:14;;;;;;;;;;;;;;;;;;5150585;27;20283;-46
2023/10/21 03:01:40;;;;;;;;;;;;;;;;;;5150496;27;20278;-45
2023/10/21 03:04:05;;;;;;;;;;;;;;;;;;5150799;27;19923;-46
2023/10/21 03:06:31;;;;;;;;;;;;;;;;;;5149045;27;19962;-44
2023/10/21 03:08:57;;;;;;;;;;;;;;;;;;5149327;27;20390;-48
2023/10/21 03:11:24;;;;;;;;;;;;;;;;;;5149010;27;19975;-45
2023/10/21 03:13:49;;;;;;;;;;;;;;;;;;5149106;27;20312;-45
2023/10/21 03:16:14;;;;;;;;;;;;;;;;;;5148681;27;20306;-45
2023/10/21 03:18:40;;;;;;;;;;;;;;;;;;5139175;27;19927;-45
2023/10/21 03:21:06;;;;;;;;;;;;;;;;;;5128642;28;19972;-45
2023/10/21 03:23:31;;;;;;;;;;;;;;;;;;5128395;28;20014;-43
2023/10/21 03:25:57;;;;;;;;;;;;;;;;;;5130596;27;20018;-44
2023/10/21 03:28:23;;;;;;;;;;;;;;;;;;5148320;27;20312;-45
2023/10/21 03:30:48;;;;;;;;;;;;;;;;;;5148582;27;20367;-44
2023/10/21 03:33:13;;;;;;;;;;;;;;;;;;5149641;27;20021;-44
2023/10/21 03:35:39;;;;;;;;;;;;;;;;;;5149193;27;19966;-44
2023/10/21 03:38:04;;;;;;;;;;;;;;;;;;5148511;27;20014;-46
2023/10/21 03:40:30;;;;;;;;;;;;;;;;;;5149067;27;20014;-47
2023/10/21 03:42:55;;;;;;;;;;;;;;;;;;5150221;27;20462;-43
2023/10/21 03:45:21;;;;;;;;;;;;;;;;;;5148689;27;20346;-46
2023/10/21 03:47:46;;;;;;;;;;;;;;;;;;5149143;27;20283;-44
2023/10/21 03:50:12;;;;;;;;;;;;;;;;;;5148449;27;20014;-45
2023/10/21 03:52:37;;;;;;;;;;;;;;;;;;5148044;27;20017;-46
2023/10/21 03:55:04;;;;;;;;;;;;;;;;;;5148664;27;20018;-43
2023/10/21 03:57:29;;;;;;;;;;;;;;;;;;5148230;27;19954;-44
2023/10/21 03:59:55;;;;;;;;;;;;;;;;;;5148509;27;19933;-45
2023/10/21 04:02:20;;;;;;;;;;;;;;;;;;5149846;27;20026;-44
2023/10/21 04:04:46;;;;;;;;;;;;;;;;;;5149355;27;19923;-45
2023/10/21 04:07:11;;;;;;;;;;;;;;;;;;5142313;27;20013;-44
2023/10/21 04:09:37;;;;;;;;;;;;;;;;;;5146469;27;20026;-44
2023/10/21 04:12:02;;;;;;;;;;;;;;;;;;5148747;27;20230;-44
2023/10/21 04:14:28;;;;;;;;;;;;;;;;;;5148417;27;19933;-47
2023/10/21 04:16:53;;;;;;;;;;;;;;;;;;5148963;27;19923;-44
2023/10/21 04:19:19;;;;;;;;;;;;;;;;;;5133456;27;20157;-44
2023/10/21 04:21:44;;;;;;;;;;;;;;;;;;5128522;28;20319;-44
2023/10/21 04:24:10;;;;;;;;;;;;;;;;;;5128020;27;19970;-45
2023/10/21 04:26:35;;;;;;;;;;;;;;;;;;5133524;27;19930;-44
2023/10/21 04:29:01;;;;;;;;;;;;;;;;;;5136162;27;20011;-44
2023/10/21 04:31:26;;;;;;;;;;;;;;;;;;5133545;27;20038;-44
2023/10/21 04:33:52;;;;;;;;;;;;;;;;;;5147114;27;20423;-43
2023/10/21 04:36:17;;;;;;;;;;;;;;;;;;5147054;27;20018;-46
2023/10/21 04:38:43;;;;;;;;;;;;;;;;;;5140151;27;20340;-43
2023/10/21 04:41:08;;;;;;;;;;;;;;;;;;5130504;27;19962;-46
2023/10/21 04:43:33;;;;;;;;;;;;;;;;;;5148926;27;20006;-45
2023/10/21 04:45:59;;;;;;;;;;;;;;;;;;5148790;27;20230;-46
2023/10/21 04:48:25;;;;;;;;;;;;;;;;;;5148368;27;20190;-46
2023/10/21 04:50:50;;;;;;;;;;;;;;;;;;5148833;27;19930;-44
2023/10/21 04:53:16;;;;;;;;;;;;;;;;;;5148062;27;19923;-44
2023/10/21 04:55:41;;;;;;;;;;;;;;;;;;5147720;27;19959;-45
2023/10/21 04:58:07;;;;;;;;;;;;;;;;;;5143305;27;20046;-43
2023/10/21 05:00:33;;;;;;;;;;;;;;;;;;5128576;28;19974;-44
2023/10/21 05:02:58;;;;;;;;;;;;;;;;;;5128647;28;20437;-45
2023/10/21 05:05:24;;;;;;;;;;;;;;;;;;5127765;28;20477;-48
2023/10/21 05:07:50;;;;;;;;;;;;;;;;;;5140870;27;21083;-46
2023/10/21 05:10:18;;;;;;;;;;;;;;;;;;5148312;27;19950;-45
2023/10/21 05:12:43;;;;;;;;;;;;;;;;;;5147491;27;19927;-44
2023/10/21 05:15:09;;;;;;;;;;;;;;;;;;5148037;27;20052;-43
2023/10/21 05:17:35;;;;;;;;;;;;;;;;;;5146384;27;20356;-46
2023/10/21 05:20:00;;;;;;;;;;;;;;;;;;5126978;28;20014;-43
2023/10/21 05:22:25;;;;;;;;;;;;;;;;;;5127187;28;20328;-45
2023/10/21 05:24:51;;;;;;;;;;;;;;;;;;5126683;28;20006;-43
2023/10/21 05:27:16;;;;;;;;;;;;;;;;;;5136113;27;19990;-43
2023/10/21 05:29:42;;;;;;;;;;;;;;;;;;5147624;27;20013;-44
2023/10/21 05:32:07;;;;;;;;;;;;;;;;;;5147353;27;20339;-43
2023/10/21 05:34:33;;;;;;;;;;;;;;;;;;5145912;27;19927;-47
2023/10/21 05:36:58;;;;;;;;;;;;;;;;;;5146856;27;19971;-45
2023/10/21 05:39:24;;;;;;;;;;;;;;;;;;5134989;27;20002;-45
2023/10/21 05:41:50;;;;;;;;;;;;;;;;;;5127652;27;19927;-43
2023/10/21 05:44:15;;;;;;;;;;;;;;;;;;5141964;27;19954;-44
2023/10/21 05:46:40;;;;;;;;;;;;;;;;;;5146806;27;19923;-43
2023/10/21 05:49:06;;;;;;;;;;;;;;;;;;5147767;27;20326;-45
2023/10/21 05:51:31;;;;;;;;;;;;;;;;;;5146917;27;20030;-45
2023/10/21 05:53:57;;;;;;;;;;;;;;;;;;5146123;27;19923;-45
2023/10/21 05:56:23;;;;;;;;;;;;;;;;;;5145893;27;19927;-44
2023/10/21 05:58:48;;;;;;;;;;;;;;;;;;5136075;27;19976;-45
2023/10/21 06:01:15;;;;;;;;;;;;;;;;;;5126895;28;19977;-44
2023/10/21 06:03:40;;;;;;;;;;;;;;;;;;5126746;28;19927;-44
2023/10/21 06:06:06;;;;;;;;;;;;;;;;;;5128438;27;21085;-45
2023/10/21 06:08:31;;;;;;;;;;;;;;;;;;5149334;27;19974;-46
2023/10/21 06:10:57;;;;;;;;;;;;;;;;;;5130568;28;19924;-44
2023/10/21 06:13:23;;;;;;;;;;;;;;;;;;5130097;28;20290;-46
2023/10/21 06:15:48;;;;;;;;;;;;;;;;;;5130692;28;19931;-44
2023/10/21 06:18:14;;;;;;;;;;;;;;;;;;5146344;27;20396;-43
2023/10/21 06:20:39;;;;;;;;;;;;;;;;;;5151379;27;20014;-45
2023/10/21 06:23:05;;;;;;;;;;;;;;;;;;5151517;27;19970;-43
2023/10/21 06:25:30;;;;;;;;;;;;;;;;;;5150512;27;19955;-44
2023/10/21 06:27:56;;;;;;;;;;;;;;;;;;5150210;27;19959;-45
2023/10/21 06:30:21;;;;;;;;;;;;;;;;;;5151445;27;19930;-44
2023/10/21 06:32:47;;;;;;;;;;;;;;;;;;5150098;27;19948;-44
2023/10/21 06:35:12;;;;;;;;;;;;;;;;;;5149692;27;20014;-43
2023/10/21 06:37:38;;;;;;;;;;;;;;;;;;5148981;27;19923;-45
2023/10/21 06:40:04;;;;;;;;;;;;;;;;;;5149985;27;19927;-45
2023/10/21 06:42:30;;;;;;;;;;;;;;;;;;5150264;27;20006;-45
2023/10/21 06:44:55;;;;;;;;;;;;;;;;;;5149914;27;19934;-45
2023/10/21 06:47:21;;;;;;;;;;;;;;;;;;5149243;27;19975;-44
2023/10/21 06:49:47;;;;;;;;;;;;;;;;;;5149547;27;19954;-43
2023/10/21 06:52:12;;;;;;;;;;;;;;;;;;5149140;27;19974;-45
2023/10/21 06:54:38;;;;;;;;;;;;;;;;;;5148274;27;19958;-44
2023/10/21 06:57:03;;;;;;;;;;;;;;;;;;5149197;27;20022;-44
2023/10/21 06:59:29;;;;;;;;;;;;;;;;;;5148259;27;19935;-44
2023/10/21 07:01:54;;;;;;;;;;;;;;;;;;5149828;27;20590;-46
2023/10/21 07:04:20;;;;;;;;;;;;;;;;;;5150023;27;19946;-44
2023/10/21 07:06:48;;;;;;;;;;;;;;;;;;5156604;27;19948;-44
2023/10/21 07:09:13;;;;;;;;;;;;;;;;;;5149942;27;20368;-44
2023/10/21 07:11:40;;;;;;;;;;;;;;;;;;5149653;27;20037;-44
2023/10/21 07:14:05;;;;;;;;;;;;;;;;;;5150086;27;19970;-47
2023/10/21 07:16:31;;;;;;;;;;;;;;;;;;5150295;27;20064;-44
2023/10/21 07:18:57;;;;;;;;;;;;;;;;;;5148837;27;19966;-44
2023/10/21 07:21:22;;;;;;;;;;;;;;;;;;5149781;27;20340;-45
2023/10/21 07:23:48;;;;;;;;;;;;;;;;;;5149800;27;20405;-43
2023/10/21 07:26:13;;;;;;;;;;;;;;;;;;5148220;27;20418;-44
2023/10/21 07:28:39;;;;;;;;;;;;;;;;;;5149424;27;20490;-43
2023/10/21 07:31:04;;;;;;;;;;;;;;;;;;5149958;27;20564;-44
2023/10/21 07:33:30;;;;;;;;;;;;;;;;;;5149725;27;19967;-44
2023/10/21 07:35:55;;;;;;;;;;;;;;;;;;5149525;27;20002;-45
2023/10/21 07:38:21;;;;;;;;;;;;;;;;;;5147858;27;20375;-44
2023/10/21 07:40:46;;;;;;;;;;;;;;;;;;5149578;27;20279;-44
2023/10/21 07:43:12;;;;;;;;;;;;;;;;;;5149781;27;19927;-43
2023/10/21 07:45:37;;;;;;;;;;;;;;;;;;5149158;27;20046;-46
2023/10/21 07:48:03;;;;;;;;;;;;;;;;;;5148678;27;19984;-47
2023/10/21 07:50:28;;;;;;;;;;;;;;;;;;5149947;27;19930;-47
2023/10/21 07:52:54;;;;;;;;;;;;;;;;;;5149489;27;20002;-43
2023/10/21 07:55:19;;;;;;;;;;;;;;;;;;5149343;27;20014;-44
2023/10/21 07:57:45;;;;;;;;;;;;;;;;;;5147909;27;19931;-44
2023/10/21 08:00:13;;;;;;;;;;;;;;;;;;5148765;27;20005;-45
2023/10/21 08:02:39;;;;;;;;;;;;;;;;;;5149375;27;19927;-44
2023/10/21 08:05:04;;;;;;;;;;;;;;;;;;5149461;27;19969;-45
2023/10/21 08:07:30;;;;;;;;;;;;;;;;;;5152476;27;19927;-44
2023/10/21 08:09:56;;;;;;;;;;;;;;;;;;5128755;27;19923;-44
2023/10/21 08:12:22;;;;;;;;;;;;;;;;;;5128341;28;20396;-45
2023/10/21 08:14:47;;;;;;;;;;;;;;;;;;5128593;28;20015;-44
2023/10/21 08:17:13;;;;;;;;;;;;;;;;;;5131975;27;20364;-45
2023/10/21 08:19:38;;;;;;;;;;;;;;;;;;5131570;27;20350;-43
2023/10/21 08:22:05;;;;;;;;;;;;;;;;;;5128497;28;20014;-44
2023/10/21 08:24:31;;;;;;;;;;;;;;;;;;5128526;28;19931;-43
2023/10/21 08:26:57;;;;;;;;;;;;;;;;;;5128230;27;20345;-43
2023/10/21 08:29:22;;;;;;;;;;;;;;;;;;5132939;27;19927;-44
2023/10/21 08:31:48;;;;;;;;;;;;;;;;;;5126989;27;19984;-46
2023/10/21 08:34:13;;;;;;;;;;;;;;;;;;5128175;28;20014;-46
2023/10/21 08:36:39;;;;;;;;;;;;;;;;;;5127615;27;20383;-44
2023/10/21 08:39:07;;;;;;;;;;;;;;;;;;5145727;27;19927;-43
2023/10/21 08:41:32;;;;;;;;;;;;;;;;;;5147130;27;20001;-43
2023/10/21 08:43:58;;;;;;;;;;;;;;;;;;5149615;27;20375;-43
2023/10/21 08:46:23;;;;;;;;;;;;;;;;;;5148517;27;20014;-46
2023/10/21 08:48:49;;;;;;;;;;;;;;;;;;5148010;27;20006;-44
2023/10/21 08:51:14;;;;;;;;;;;;;;;;;;5148846;27;20367;-43
2023/10/21 08:53:40;;;;;;;;;;;;;;;;;;5148543;27;20025;-44
2023/10/21 08:56:05;;;;;;;;;;;;;;;;;;5147646;27;20454;-44
2023/10/21 08:58:31;;;;;;;;;;;;;;;;;;5145715;27;20449;-44
2023/10/21 09:00:56;;;;;;;;;;;;;;;;;;5147879;27;20338;-45
2023/10/21 09:03:23;;;;;;;;;;;;;;;;;;5147322;27;20390;-45
2023/10/21 09:05:48;;;;;;;;;;;;;;;;;;5141403;27;19934;-44
2023/10/21 09:08:14;;;;;;;;;;;;;;;;;;5151558;27;19998;-47
2023/10/21 09:10:39;;;;;;;;;;;;;;;;;;5128000;28;19927;-44
2023/10/21 09:13:05;;;;;;;;;;;;;;;;;;5127513;28;20059;-45
2023/10/21 09:15:30;;;;;;;;;;;;;;;;;;5127555;28;20108;-43
2023/10/21 09:17:58;;;;;;;;;;;;;;;;;;5132104;27;20034;-43
2023/10/21 09:20:23;;;;;;;;;;;;;;;;;;5127943;28;19927;-44
2023/10/21 09:22:51;;;;;;;;;;;;;;;;;;5127176;28;20408;-44
2023/10/21 09:25:18;;;;;;;;;;;;;;;;;;5127355;28;20223;-44
2023/10/21 09:27:44;;;;;;;;;;;;;;;;;;5129809;27;19972;-45
2023/10/21 09:30:09;;;;;;;;;;;;;;;;;;5127638;28;20370;-45
2023/10/21 09:32:35;;;;;;;;;;;;;;;;;;5127681;28;19977;-46
2023/10/21 09:35:01;;;;;;;;;;;;;;;;;;5126905;28;20022;-44
2023/10/21 09:37:26;;;;;;;;;;;;;;;;;;5128448;27;20072;-43
2023/10/21 09:39:52;;;;;;;;;;;;;;;;;;5126830;27;19927;-44
2023/10/21 09:42:17;;;;;;;;;;;;;;;;;;5146803;27;20053;-45
2023/10/21 09:44:43;;;;;;;;;;;;;;;;;;5151349;27;19934;-44
2023/10/21 09:47:09;;;;;;;;;;;;;;;;;;5150949;27;20355;-43
2023/10/21 09:49:34;;;;;;;;;;;;;;;;;;5148019;27;19930;-44
2023/10/21 09:52:00;;;;;;;;;;;;;;;;;;5151510;27;19970;-45
2023/10/21 09:54:26;;;;;;;;;;;;;;;;;;5150450;27;19923;-45
2023/10/21 09:56:51;;;;;;;;;;;;;;;;;;5149727;27;20018;-43
2023/10/21 09:59:17;;;;;;;;;;;;;;;;;;5135133;27;19924;-44
2023/10/21 10:01:42;;;;;;;;;;;;;;;;;;5149185;27;19927;-43
2023/10/21 10:04:09;;;;;;;;;;;;;;;;;;5149713;27;19927;-47
2023/10/21 10:06:35;;;;;;;;;;;;;;;;;;5136561;27;19923;-44
2023/10/21 10:09:04;;;;;;;;;;;;;;;;;;5150298;27;20034;-43
2023/10/21 10:11:30;;;;;;;;;;;;;;;;;;5150330;27;20430;-45
2023/10/21 10:13:56;;;;;;;;;;;;;;;;;;5150229;27;19929;-43
2023/10/21 10:16:22;;;;;;;;;;;;;;;;;;5150191;27;20453;-43
2023/10/21 10:18:50;;;;;;;;;;;;;;;;;;5139330;27;19923;-45
2023/10/21 10:21:15;;;;;;;;;;;;;;;;;;5130026;28;19923;-43
2023/10/21 10:23:41;;;;;;;;;;;;;;;;;;5147917;27;19924;-43
2023/10/21 10:26:08;;;;;;;;;;;;;;;;;;5150472;27;19927;-43
2023/10/21 10:28:33;;;;;;;;;;;;;;;;;;5141649;27;19980;-44
2023/10/21 10:31:00;;;;;;;;;;;;;;;;;;5129968;28;20003;-44
2023/10/21 10:33:25;;;;;;;;;;;;;;;;;;5130313;28;20420;-44
2023/10/21 10:35:51;;;;;;;;;;;;;;;;;;5135098;27;19923;-45
2023/10/21 10:38:17;;;;;;;;;;;;;;;;;;5143290;27;19924;-45
2023/10/21 10:40:44;;;;;;;;;;;;;;;;;;5129356;27;20030;-44
2023/10/21 10:43:10;;;;;;;;;;;;;;;;;;5143457;27;19927;-45
2023/10/21 10:45:36;;;;;;;;;;;;;;;;;;5150363;27;20379;-46
2023/10/21 10:48:02;;;;;;;;;;;;;;;;;;5146101;27;19923;-43
2023/10/21 10:50:28;;;;;;;;;;;;;;;;;;5130996;27;19924;-43
2023/10/21 10:52:55;;;;;;;;;;;;;;;;;;5148766;27;20371;-43
2023/10/21 10:55:21;;;;;;;;;;;;;;;;;;5148381;27;20366;-44
2023/10/21 10:57:47;;;;;;;;;;;;;;;;;;5147077;27;19934;-43
2023/10/21 11:00:20;;;;;;;;;;;;;;;;;;5134757;27;20370;-43
2023/10/21 11:02:46;;;;;;;;;;;;;;;;;;5149936;27;19923;-43
2023/10/21 11:05:12;;;;;;;;;;;;;;;;;;5150255;27;19970;-44
2023/10/21 11:07:38;;;;;;;;;;;;;;;;;;5167551;27;19923;-44
2023/10/21 11:10:06;;;;;;;;;;;;;;;;;;5145466;27;20025;-46
2023/10/21 11:12:32;;;;;;;;;;;;;;;;;;5149565;27;20074;-45
2023/10/21 11:15:00;;;;;;;;;;;;;;;;;;5148963;27;19985;-43
2023/10/21 11:17:25;;;;;;;;;;;;;;;;;;5150022;27;19923;-43
2023/10/21 11:19:51;;;;;;;;;;;;;;;;;;5150056;27;19929;-43
2023/10/21 11:22:17;;;;;;;;;;;;;;;;;;5149304;27;19923;-43
2023/10/21 11:24:42;;;;;;;;;;;;;;;;;;5149923;27;20030;-45
2023/10/21 11:27:08;;;;;;;;;;;;;;;;;;5149753;27;20021;-45
2023/10/21 11:29:33;;;;;;;;;;;;;;;;;;5132794;27;20340;-44
2023/10/21 11:31:58;;;;;;;;;;;;;;;;;;5129137;28;19996;-43
2023/10/21 11:34:24;;;;;;;;;;;;;;;;;;5140447;27;19927;-43
2023/10/21 11:36:49;;;;;;;;;;;;;;;;;;5148719;27;20022;-43
2023/10/21 11:39:15;;;;;;;;;;;;;;;;;;5152482;27;20006;-43
2023/10/21 11:41:41;;;;;;;;;;;;;;;;;;5149748;27;20018;-43
2023/10/21 11:44:06;;;;;;;;;;;;;;;;;;5150240;27;19981;-44
2023/10/21 11:46:34;;;;;;;;;;;;;;;;;;5150060;27;20264;-45
2023/10/21 11:48:59;;;;;;;;;;;;;;;;;;5148655;27;19967;-44
2023/10/21 11:51:29;;;;;;;;;;;;;;;;;;5149819;27;20006;-43
2023/10/21 11:53:54;;;;;;;;;;;;;;;;;;5150284;27;19927;-43
2023/10/21 11:56:57;;;;;;;;;;;;;;;;;;5149057;27;20014;-42
2023/10/21 12:03:10;;;;;;;;;;;;;;;;;;5134676;27;19927;-44
2023/10/21 12:05:18;;;;;;;;;;;;;;;;;;5136097;27;20371;-43
2023/10/21 12:13:20;;;;;;;;;;;;;;;;;;5133053;27;20495;-43
2023/10/21 12:32:35;;;;;;;;;;;;;;;;;;5133599;27;19994;-43
2023/10/21 12:34:56;;;;;;;;;;;;;;;;;;5133675;27;19938;-43
2023/10/21 12:37:29;;;;;;;;;;;;;;;;;;5145720;27;20299;-43
2023/10/21 12:39:57;;;;;;;;;;;;;;;;;;5148247;27;19949;-43
2023/10/21 12:42:35;;;;;;;;;;;;;;;;;;5148961;27;19923;-44
2023/10/21 12:45:08;;;;;;;;;;;;;;;;;;5149210;27;19927;-45
2023/10/21 12:47:33;;;;;;;;;;;;;;;;;;5148803;27;19927;-43
2023/10/21 12:49:59;;;;;;;;;;;;;;;;;;5148823;27;19923;-43
2023/10/21 12:52:24;;;;;;;;;;;;;;;;;;5148185;27;20021;-43
2023/10/21 12:54:51;;;;;;;;;;;;;;;;;;5148267;27;19972;-44
2023/10/21 12:57:17;;;;;;;;;;;;;;;;;;5146894;27;19923;-44
2023/10/21 12:59:42;;;;;;;;;;;;;;;;;;5144480;27;19923;-44
2023/10/21 13:02:07;;;;;;;;;;;;;;;;;;5148202;27;19966;-44
2023/10/21 13:04:34;;;;;;;;;;;;;;;;;;5151641;27;20026;-46
2023/10/21 13:07:00;;;;;;;;;;;;;;;;;;5147275;27;20359;-45
2023/10/21 13:09:28;;;;;;;;;;;;;;;;;;5146794;27;19930;-45
2023/10/21 13:11:54;;;;;;;;;;;;;;;;;;5148591;27;19975;-44
2023/10/21 13:14:19;;;;;;;;;;;;;;;;;;5147897;27;20010;-43
2023/10/21 13:16:45;;;;;;;;;;;;;;;;;;5145858;27;19930;-45
2023/10/21 13:19:11;;;;;;;;;;;;;;;;;;5147369;27;19931;-44
2023/10/21 13:21:36;;;;;;;;;;;;;;;;;;5148176;27;19942;-44
2023/10/21 13:24:04;;;;;;;;;;;;;;;;;;5148012;27;19923;-44
2023/10/21 13:26:30;;;;;;;;;;;;;;;;;;5146344;27;19972;-43
2023/10/21 13:28:56;;;;;;;;;;;;;;;;;;5145553;27;19926;-45
2023/10/21 13:31:21;;;;;;;;;;;;;;;;;;5147455;27;20271;-44
2023/10/21 13:33:47;;;;;;;;;;;;;;;;;;5148180;27;20458;-46
2023/10/21 13:36:12;;;;;;;;;;;;;;;;;;5146834;27;19923;-46
2023/10/21 13:38:38;;;;;;;;;;;;;;;;;;5145025;27;19930;-43
2023/10/21 13:41:05;;;;;;;;;;;;;;;;;;5147597;27;20018;-43
2023/10/21 13:43:30;;;;;;;;;;;;;;;;;;5147671;27;19954;-43
2023/10/21 13:45:55;;;;;;;;;;;;;;;;;;5147945;27;20395;-43
2023/10/21 13:48:21;;;;;;;;;;;;;;;;;;5147046;27;20355;-44
2023/10/21 13:50:50;;;;;;;;;;;;;;;;;;5147633;27;19927;-46
2023/10/21 13:53:17;;;;;;;;;;;;;;;;;;5147691;27;19963;-45
2023/10/21 13:55:42;;;;;;;;;;;;;;;;;;5146995;27;19979;-44
2023/10/21 13:58:08;;;;;;;;;;;;;;;;;;5145543;27;19948;-44
2023/10/21 14:00:34;;;;;;;;;;;;;;;;;;5126941;28;19938;-45
2023/10/21 14:03:00;;;;;;;;;;;;;;;;;;5127298;27;20028;-43
2023/10/21 14:05:26;;;;;;;;;;;;;;;;;;5155109;27;19923;-47
2023/10/21 14:07:51;;;;;;;;;;;;;;;;;;5146784;27;19976;-45
2023/10/21 14:10:17;;;;;;;;;;;;;;;;;;5147041;27;19927;-44
2023/10/21 14:12:42;;;;;;;;;;;;;;;;;;5147629;27;19923;-44
2023/10/21 14:15:10;;;;;;;;;;;;;;;;;;5147096;27;19930;-47
2023/10/21 14:17:36;;;;;;;;;;;;;;;;;;5144805;27;19934;-43
2023/10/21 14:20:01;;;;;;;;;;;;;;;;;;5146535;27;20013;-46
2023/10/21 14:22:27;;;;;;;;;;;;;;;;;;5147296;27;20132;-42
2023/10/21 14:24:53;;;;;;;;;;;;;;;;;;5147113;27;19923;-45
2023/10/21 14:27:19;;;;;;;;;;;;;;;;;;5146363;27;19923;-45
2023/10/21 14:29:46;;;;;;;;;;;;;;;;;;5141620;27;19972;-43
2023/10/21 14:32:12;;;;;;;;;;;;;;;;;;5150582;27;19927;-46
2023/10/21 14:34:38;;;;;;;;;;;;;;;;;;5150576;27;20267;-44
2023/10/21 14:37:06;;;;;;;;;;;;;;;;;;5146829;27;19934;-45
2023/10/21 14:39:33;;;;;;;;;;;;;;;;;;5144947;27;20015;-45
2023/10/21 14:41:59;;;;;;;;;;;;;;;;;;5150624;27;19934;-44
2023/10/21 14:44:24;;;;;;;;;;;;;;;;;;5150800;27;20014;-45
2023/10/21 14:46:52;;;;;;;;;;;;;;;;;;5150435;27;20006;-47
2023/10/21 14:49:17;;;;;;;;;;;;;;;;;;5149598;27;19923;-43
2023/10/21 14:51:43;;;;;;;;;;;;;;;;;;5150834;27;20443;-43
2023/10/21 14:54:09;;;;;;;;;;;;;;;;;;5150817;27;19924;-43
2023/10/21 14:56:34;;;;;;;;;;;;;;;;;;5149174;27;20009;-46
2023/10/21 14:59:00;;;;;;;;;;;;;;;;;;5141567;27;19923;-43
2023/10/21 15:01:26;;;;;;;;;;;;;;;;;;5149666;27;20010;-43
2023/10/21 15:03:51;;;;;;;;;;;;;;;;;;5134514;27;19927;-45
2023/10/21 15:06:17;;;;;;;;;;;;;;;;;;5129056;28;20003;-45
2023/10/21 15:08:42;;;;;;;;;;;;;;;;;;5139538;27;19967;-43
2023/10/21 15:11:08;;;;;;;;;;;;;;;;;;5149770;27;19927;-44
2023/10/21 15:13:33;;;;;;;;;;;;;;;;;;5150966;27;20563;-44
2023/10/21 15:15:59;;;;;;;;;;;;;;;;;;5149560;27;20344;-44
2023/10/21 15:18:25;;;;;;;;;;;;;;;;;;5135794;27;19923;-43
2023/10/21 15:20:51;;;;;;;;;;;;;;;;;;5148086;27;19987;-45
2023/10/21 15:23:17;;;;;;;;;;;;;;;;;;5150537;27;20357;-45
2023/10/21 15:25:42;;;;;;;;;;;;;;;;;;5149696;27;19927;-43
2023/10/21 15:28:08;;;;;;;;;;;;;;;;;;5144754;27;19959;-42
2023/10/21 15:30:34;;;;;;;;;;;;;;;;;;5147352;27;19935;-45
2023/10/21 15:33:00;;;;;;;;;;;;;;;;;;5150163;27;20418;-43
2023/10/21 15:35:25;;;;;;;;;;;;;;;;;;5146964;27;19932;-43
2023/10/21 15:37:51;;;;;;;;;;;;;;;;;;5149187;27;20029;-44
2023/10/21 15:40:17;;;;;;;;;;;;;;;;;;5143892;27;20059;-43
2023/10/21 15:42:42;;;;;;;;;;;;;;;;;;5147771;27;19923;-43
2023/10/21 15:45:08;;;;;;;;;;;;;;;;;;5149981;27;19976;-45
2023/10/21 15:47:34;;;;;;;;;;;;;;;;;;5149396;27;20019;-45
2023/10/21 15:50:00;;;;;;;;;;;;;;;;;;5149397;27;19971;-44
2023/10/21 15:52:25;;;;;;;;;;;;;;;;;;5149768;27;20390;-43
2023/10/21 15:54:51;;;;;;;;;;;;;;;;;;5149983;27;19923;-43
2023/10/21 15:57:16;;;;;;;;;;;;;;;;;;5148298;27;20079;-44
2023/10/21 15:59:42;;;;;;;;;;;;;;;;;;5148593;27;19989;-45
2023/10/21 16:02:07;;;;;;;;;;;;;;;;;;5145923;27;19930;-46
2023/10/21 16:04:33;;;;;;;;;;;;;;;;;;5171046;27;19929;-44
2023/10/21 16:06:59;;;;;;;;;;;;;;;;;;5170002;27;19934;-44
2023/10/21 16:09:28;;;;;;;;;;;;;;;;;;5144698;27;19923;-45
2023/10/21 16:11:53;;;;;;;;;;;;;;;;;;5149801;27;19958;-44
2023/10/21 16:14:19;;;;;;;;;;;;;;;;;;5150471;27;19927;-44
2023/10/21 16:16:44;;;;;;;;;;;;;;;;;;5149735;27;19976;-43
2023/10/21 16:19:10;;;;;;;;;;;;;;;;;;5148077;27;19990;-43
2023/10/21 16:21:35;;;;;;;;;;;;;;;;;;5148550;27;19923;-44
2023/10/21 16:24:01;;;;;;;;;;;;;;;;;;5149662;27;19962;-43
2023/10/21 16:26:26;;;;;;;;;;;;;;;;;;5148504;27;19923;-45
2023/10/21 16:28:51;;;;;;;;;;;;;;;;;;5139156;27;20013;-43
2023/10/21 16:31:17;;;;;;;;;;;;;;;;;;5148432;27;19969;-45
2023/10/21 16:33:43;;;;;;;;;;;;;;;;;;5148160;27;20405;-45
2023/10/21 16:36:08;;;;;;;;;;;;;;;;;;5145723;27;20393;-47
2023/10/21 16:38:35;;;;;;;;;;;;;;;;;;5142405;27;19944;-42
2023/10/21 16:41:00;;;;;;;;;;;;;;;;;;5146487;27;20011;-45
2023/10/21 16:43:26;;;;;;;;;;;;;;;;;;5147994;27;20033;-43
2023/10/21 16:45:51;;;;;;;;;;;;;;;;;;5148311;27;19927;-43
2023/10/21 16:48:17;;;;;;;;;;;;;;;;;;5142062;27;19927;-44
2023/10/21 16:50:42;;;;;;;;;;;;;;;;;;5143964;27;19924;-43
2023/10/21 16:53:09;;;;;;;;;;;;;;;;;;5148020;27;20283;-46
2023/10/21 16:55:34;;;;;;;;;;;;;;;;;;5148146;27;19931;-44
2023/10/21 16:58:00;;;;;;;;;;;;;;;;;;5146829;27;20284;-44
2023/10/21 17:00:25;;;;;;;;;;;;;;;;;;5147895;27;19962;-45
2023/10/21 17:02:51;;;;;;;;;;;;;;;;;;5154998;27;19923;-47